Time;durP1;ratioP1;P1;durP2;ratioP2;P2;SDS_P1;SDS_P2;PMS_P1;PMS_P2;Temp;Humidity;BMP_temperature;BMP_pressure;BME280_temperature;BME280_humidity;BME280_pressure;Samples;Min_cycle;Max_cycle;Signal;HPM_P1;HPM_P2
2023/10/17 00:01:54;;;;;;;1.08;1.08;;;;;;;5.76;87.30;98736.75;4104975;28;20692;-47
2023/10/17 00:03:58;;;;;;;1.23;1.23;;;;;;;5.75;86.56;98740.53;4119631;28;20344;-47
2023/10/17 00:06:00;;;;;;;2.05;1.95;;;;;;;5.79;86.97;98750.78;4104828;28;20211;-48
2023/10/17 00:08:05;;;;;;;1.23;1.23;;;;;;;5.85;86.32;98747.19;4105716;28;20207;-47
2023/10/17 00:10:15;;;;;;;1.33;1.23;;;;;;;5.77;85.74;98738.41;4119327;28;20727;-46
2023/10/17 00:12:25;;;;;;;1.45;1.45;;;;;;;5.74;85.82;98745.09;4133686;28;20205;-50
2023/10/17 00:14:35;;;;;;;1.48;1.05;;;;;;;5.80;85.59;98738.84;4133231;28;20206;-47
2023/10/17 00:16:37;;;;;;;2.00;1.90;;;;;;;5.83;85.68;98740.31;4120048;28;20284;-47
2023/10/17 00:18:40;;;;;;;1.55;1.45;;;;;;;5.71;86.10;98742.84;4117895;28;20211;-48
2023/10/17 00:20:43;;;;;;;1.65;1.52;;;;;;;5.53;87.15;98741.81;4136777;28;20213;-47
2023/10/17 00:22:45;;;;;;;1.55;1.45;;;;;;;5.65;87.54;98740.13;4102475;28;20249;-46
2023/10/17 00:24:47;;;;;;;1.50;1.40;;;;;;;5.26;88.98;98741.06;4103346;28;20696;-47
2023/10/17 00:26:49;;;;;;;5.25;3.00;;;;;;;5.34;89.08;98732.69;4105803;28;20221;-47
2023/10/17 00:28:53;;;;;;;1.15;1.15;;;;;;;5.39;88.72;98734.75;4102482;28;20212;-46
2023/10/17 00:30:54;;;;;;;2.15;2.05;;;;;;;5.39;88.57;98734.75;4119187;28;20202;-49
2023/10/17 00:32:56;;;;;;;1.40;1.30;;;;;;;5.47;88.46;98731.81;4103777;28;20223;-48
2023/10/17 00:34:58;;;;;;;1.55;1.45;;;;;;;5.59;87.47;98740.97;4117886;28;20514;-48
2023/10/17 00:37:19;;;;;;;1.63;1.33;;;;;;;5.65;86.69;98740.13;4118841;28;20214;-49
2023/10/17 00:39:32;;;;;;;1.23;1.23;;;;;;;5.58;86.95;98728.44;4100630;28;20218;-47
2023/10/17 00:43:59;;;;;;;5.22;1.30;;;;;;;5.58;86.51;98728.44;4102680;28;20674;-49
2023/10/17 00:46:01;;;;;;;12.45;1.52;;;;;;;5.52;86.43;98724.72;4117085;28;20485;-46
2023/10/17 00:48:08;;;;;;;1.27;1.20;;;;;;;5.47;85.82;98707.38;4117289;28;20209;-49
2023/10/17 00:50:13;;;;;;;1.20;1.13;;;;;;;5.47;85.95;98708.25;4134353;28;20210;-48
2023/10/17 00:52:25;;;;;;;1.67;1.58;;;;;;;5.47;85.80;98707.38;4118677;28;20290;-47
2023/10/17 00:54:29;;;;;;;2.25;1.80;;;;;;;5.45;85.97;98713.06;4134858;28;20253;-47
2023/10/17 00:56:31;;;;;;;1.48;1.38;;;;;;;5.41;85.56;98706.38;4102434;28;20203;-46
2023/10/17 00:58:34;;;;;;;1.42;1.42;;;;;;;5.42;85.67;98710.75;4097061;28;20210;-48
2023/10/17 01:00:36;;;;;;;2.15;1.35;;;;;;;5.40;85.71;98709.28;4100237;28;20211;-47
2023/10/17 01:02:44;;;;;;;1.92;1.70;;;;;;;5.40;85.90;98717.44;4130778;28;20242;-48
2023/10/17 01:04:47;;;;;;;1.45;1.38;;;;;;;5.38;85.99;98711.41;4116328;28;20401;-47
2023/10/17 01:06:54;;;;;;;1.48;1.38;;;;;;;5.36;85.62;98719.72;4100827;28;20207;-48
2023/10/17 01:08:57;;;;;;;1.35;1.35;;;;;;;5.32;86.34;98723.09;4117685;28;20205;-46
2023/10/17 01:10:59;;;;;;;1.13;1.13;;;;;;;5.29;85.87;98720.81;4104211;28;20211;-49
2023/10/17 01:13:04;;;;;;;1.17;1.13;;;;;;;5.27;86.77;98720.16;4100333;28;20747;-46
2023/10/17 01:15:06;;;;;;;3.13;1.90;;;;;;;5.25;86.37;98711.41;4104619;28;20210;-47
2023/10/17 01:17:12;;;;;;;1.48;1.45;;;;;;;5.28;86.58;98711.81;4120948;28;20242;-47
2023/10/17 01:19:19;;;;;;;0.93;0.93;;;;;;;5.17;86.31;98714.34;4100412;28;20270;-47
2023/10/17 01:21:21;;;;;;;1.55;1.50;;;;;;;5.16;86.31;98712.69;4115225;28;20290;-48
2023/10/17 01:23:24;;;;;;;1.35;1.25;;;;;;;5.14;86.64;98714.75;4119600;28;20268;-47
2023/10/17 01:25:28;;;;;;;3.33;2.53;;;;;;;5.11;86.48;98715.19;4118149;28;20206;-47
2023/10/17 01:27:31;;;;;;;1.20;1.20;;;;;;;5.06;86.45;98706.03;4082647;28;20244;-48
2023/10/17 01:29:34;;;;;;;1.55;1.45;;;;;;;5.03;86.76;98715.44;4133460;28;20210;-47
2023/10/17 01:31:38;;;;;;;2.35;2.00;;;;;;;5.00;86.63;98713.13;4102583;28;20733;-47
2023/10/17 01:33:44;;;;;;;1.42;1.38;;;;;;;4.98;86.88;98707.06;4119516;28;20574;-47
2023/10/17 01:35:49;;;;;;;1.60;1.50;;;;;;;4.94;86.55;98700.41;4118816;28;20332;-47
2023/10/17 01:37:56;;;;;;;1.00;1.00;;;;;;;4.90;86.55;98707.31;4104697;28;20203;-46
2023/10/17 01:39:58;;;;;;;1.58;1.35;;;;;;;4.91;86.70;98703.53;4099634;28;20232;-47
2023/10/17 01:42:00;;;;;;;1.55;1.45;;;;;;;4.91;86.27;98702.69;4118526;28;20297;-49
2023/10/17 01:44:02;;;;;;;0.93;0.93;;;;;;;4.90;86.79;98696.47;4121082;28;20230;-47
2023/10/17 01:46:05;;;;;;;0.95;0.95;;;;;;;4.91;86.65;98692.69;4134502;28;20674;-47
2023/10/17 01:48:11;;;;;;;3.55;1.75;;;;;;;4.97;86.55;98683.72;4116910;28;20211;-47
2023/10/17 01:50:13;;;;;;;1.52;1.42;;;;;;;4.84;86.04;98697.28;4119347;28;20206;-47
2023/10/17 01:52:15;;;;;;;1.65;1.55;;;;;;;4.87;86.12;98687.91;4114389;28;20315;-48
2023/10/17 01:54:17;;;;;;;1.27;1.20;;;;;;;4.77;86.15;98682.91;4117950;28;20585;-48
2023/10/17 01:56:26;;;;;;;1.75;1.58;;;;;;;4.72;86.67;98677.28;4133757;28;20664;-47
2023/10/17 01:58:30;;;;;;;1.17;1.08;;;;;;;4.70;86.99;98673.09;4102388;28;20260;-48
2023/10/17 02:02:37;;;;;;;1.73;1.63;;;;;;;4.69;86.97;98677.72;4102543;28;20230;-46
2023/10/17 02:04:40;;;;;;;1.00;1.00;;;;;;;4.73;87.20;98684.34;4105944;28;20280;-48
2023/10/17 02:06:42;;;;;;;1.17;1.17;;;;;;;4.69;87.31;98688.53;4103531;28;20820;-46
2023/10/17 02:08:44;;;;;;;1.50;1.42;;;;;;;4.68;87.04;98688.75;4135930;28;20218;-47
2023/10/17 02:10:47;;;;;;;1.52;1.52;;;;;;;4.69;87.24;98685.00;4121461;28;20210;-47
2023/10/17 02:12:49;;;;;;;2.13;1.65;;;;;;;4.61;86.89;98696.84;4107100;28;20314;-48
2023/10/17 02:14:51;;;;;;;1.50;1.50;;;;;;;4.58;86.70;98702.72;4115975;28;20261;-48
2023/10/17 02:16:55;;;;;;;1.60;1.50;;;;;;;4.62;87.15;98703.97;4101476;28;20301;-48
2023/10/17 02:19:03;;;;;;;1.45;1.35;;;;;;;4.63;87.41;98705.63;4119817;28;20301;-46
2023/10/17 02:21:05;;;;;;;1.05;1.05;;;;;;;4.66;87.13;98710.63;4136362;28;20208;-48
2023/10/17 02:23:13;;;;;;;0.95;0.95;;;;;;;4.64;87.53;98701.03;4106532;28;20235;-46
2023/10/17 02:25:15;;;;;;;1.73;1.55;;;;;;;4.74;87.78;98704.19;4116294;28;20209;-47
2023/10/17 02:27:21;;;;;;;1.55;1.45;;;;;;;4.82;87.47;98709.38;4118749;28;20249;-47
2023/10/17 02:29:25;;;;;;;1.92;1.15;;;;;;;4.78;87.71;98703.53;4085102;28;20694;-47
2023/10/17 02:31:28;;;;;;;1.23;1.13;;;;;;;4.74;87.92;98702.28;4116883;28;20767;-47
2023/10/17 02:33:30;;;;;;;1.52;0.90;;;;;;;4.73;88.08;98700.63;4118948;28;20679;-47
2023/10/17 02:35:42;;;;;;;1.10;1.10;;;;;;;4.80;88.19;98706.88;4105776;28;20231;-47
2023/10/17 02:37:44;;;;;;;1.10;1.10;;;;;;;4.76;88.06;98699.38;4117247;28;20672;-47
2023/10/17 02:39:46;;;;;;;1.23;1.13;;;;;;;4.79;88.24;98705.22;4132464;28;20305;-47
2023/10/17 02:41:57;;;;;;;1.20;1.10;;;;;;;4.75;88.32;98698.56;4099932;28;20210;-46
2023/10/17 02:44:00;;;;;;;1.00;1.00;;;;;;;4.73;88.72;98700.63;4102096;28;20226;-47
2023/10/17 02:46:04;;;;;;;1.10;1.10;;;;;;;4.68;88.75;98703.13;4117453;28;20752;-47
2023/10/17 02:48:23;;;;;;;1.50;1.40;;;;;;;4.70;88.71;98698.34;4118383;28;20206;-47
2023/10/17 02:52:36;;;;;;;1.52;1.42;;;;;;;4.77;89.11;98703.75;4102186;28;20313;-48
2023/10/17 02:54:56;;;;;;;1.17;1.17;;;;;;;4.68;88.63;98703.13;4101013;28;20234;-48
2023/10/17 02:56:58;;;;;;;1.00;1.00;;;;;;;4.68;88.49;98708.53;4133911;28;20209;-48
2023/10/17 03:01:05;;;;;;;1.50;1.40;;;;;;;4.67;88.37;98701.44;4102219;28;20206;-47
2023/10/17 03:03:12;;;;;;;1.75;1.65;;;;;;;4.60;88.47;98695.19;4100535;28;20285;-46
2023/10/17 03:05:14;;;;;;;1.50;1.42;;;;;;;4.57;88.52;98695.63;4121725;28;20216;-46
2023/10/17 03:07:16;;;;;;;1.02;1.02;;;;;;;4.53;89.05;98688.94;4117878;28;20669;-48
2023/10/17 03:11:35;;;;;;;3.00;2.22;;;;;;;4.50;88.71;98683.94;4105915;28;20204;-47
2023/10/17 03:13:40;;;;;;;2.15;1.30;;;;;;;4.48;89.12;98680.59;4104224;28;20226;-46
2023/10/17 03:15:48;;;;;;;1.30;1.30;;;;;;;4.45;89.35;98678.31;4102207;28;20241;-48
2023/10/17 03:18:00;;;;;;;2.53;1.60;;;;;;;4.49;89.21;98676.03;4134631;28;20220;-48
2023/10/17 03:20:04;;;;;;;2.05;1.67;;;;;;;4.51;89.17;98672.06;4120170;28;20253;-47
2023/10/17 03:22:26;;;;;;;2.30;1.88;;;;;;;4.46;89.38;98668.31;4120580;28;20604;-48
2023/10/17 03:24:44;;;;;;;1.23;1.23;;;;;;;4.49;89.45;98671.44;4119549;28;20210;-49
2023/10/17 03:26:54;;;;;;;1.90;1.80;;;;;;;4.47;89.72;98670.81;4105552;28;20212;-47
2023/10/17 03:28:56;;;;;;;1.17;1.17;;;;;;;4.39;90.28;98657.47;4105566;28;21032;-47
2023/10/17 03:31:08;;;;;;;1.70;1.60;;;;;;;4.37;90.06;98667.69;4104077;28;20358;-48
2023/10/17 03:33:14;;;;;;;1.40;1.30;;;;;;;4.35;90.63;98664.34;4104620;28;20257;-48
2023/10/17 03:35:20;;;;;;;1.60;1.50;;;;;;;4.39;90.69;98662.88;4136786;28;20213;-47
2023/10/17 03:39:28;;;;;;;1.50;1.40;;;;;;;4.50;90.58;98667.69;4106712;28;20686;-47
2023/10/17 03:41:29;;;;;;;1.30;1.30;;;;;;;4.60;90.64;98665.38;4120419;28;20214;-48
2023/10/17 03:43:45;;;;;;;1.55;1.45;;;;;;;4.57;90.72;98668.53;4120944;28;20245;-47
2023/10/17 03:46:04;;;;;;;1.13;1.13;;;;;;;4.59;90.52;98661.03;4126049;28;20273;-47
2023/10/17 03:48:13;;;;;;;1.50;1.40;;;;;;;4.63;90.17;98667.69;4121225;28;20277;-48
2023/10/17 03:52:36;;;;;;;1.15;1.15;;;;;;;4.70;90.95;98663.09;4105303;28;20437;-47
2023/10/17 03:54:44;;;;;;;7.65;1.38;;;;;;;4.56;92.46;98655.19;4118574;28;20218;-46
2023/10/17 03:56:45;;;;;;;0.80;0.80;;;;;;;4.59;92.83;98655.59;4101015;28;20333;-48
2023/10/17 03:58:49;;;;;;;1.27;1.15;;;;;;;4.58;92.73;98653.09;4103207;28;20238;-47
2023/10/17 04:00:52;;;;;;;1.52;1.20;;;;;;;4.40;94.18;98634.75;4116743;28;20324;-47
2023/10/17 04:02:54;;;;;;;1.27;1.20;;;;;;;4.43;94.50;98639.78;4119665;28;20231;-48
2023/10/17 04:04:55;;;;;;;6.18;1.83;;;;;;;4.23;96.17;98647.06;4104384;28;20254;-47
2023/10/17 04:06:57;;;;;;;1.05;1.05;;;;;;;4.41;94.82;98651.84;4136403;28;21169;-48
2023/10/17 04:13:34;;;;;;;1.52;1.50;;;;;;;4.49;93.98;98660.63;4104827;28;20563;-48
2023/10/17 04:15:42;;;;;;;1.55;1.27;;;;;;;4.47;93.57;98661.88;4120932;28;20603;-47
2023/10/17 04:17:48;;;;;;;1.58;1.42;;;;;;;4.53;93.24;98661.84;4108629;28;20293;-46
2023/10/17 04:19:58;;;;;;;1.80;1.70;;;;;;;4.57;92.76;98668.53;4101252;28;20219;-49
2023/10/17 04:24:27;;;;;;;1.08;1.08;;;;;;;4.62;92.76;98662.47;4106101;28;20233;-48
2023/10/17 04:26:34;;;;;;;1.05;1.05;;;;;;;4.65;92.55;98665.59;4136127;28;20305;-47
2023/10/17 04:28:41;;;;;;;1.67;1.60;;;;;;;4.68;92.29;98669.78;4120223;28;20206;-46
2023/10/17 04:30:48;;;;;;;1.40;1.30;;;;;;;4.64;91.90;98671.22;4117754;28;20246;-47
2023/10/17 04:32:52;;;;;;;1.33;1.10;;;;;;;4.65;91.66;98671.03;4106685;28;20241;-48
2023/10/17 04:34:55;;;;;;;1.33;1.33;;;;;;;4.73;91.58;98673.50;4115238;28;20206;-47
2023/10/17 04:36:57;;;;;;;1.42;1.27;;;;;;;4.65;90.67;98671.03;4120526;28;20207;-47
2023/10/17 04:41:41;;;;;;;1.65;1.60;;;;;;;4.64;91.75;98672.06;4102204;28;20310;-48
2023/10/17 04:45:55;;;;;;;1.02;1.02;;;;;;;4.61;91.31;98669.75;4103034;28;20215;-47
2023/10/17 04:48:14;;;;;;;1.55;1.55;;;;;;;4.64;91.69;98671.22;4136460;28;20205;-46
2023/10/17 04:50:16;;;;;;;7.32;1.20;;;;;;;4.66;91.77;98672.69;4105955;28;20213;-50
2023/10/17 04:52:21;;;;;;;1.52;1.42;;;;;;;4.66;91.89;98672.69;4101853;28;20212;-46
2023/10/17 04:54:29;;;;;;;0.90;0.90;;;;;;;4.69;91.53;98679.56;4135892;28;20272;-46
2023/10/17 04:56:53;;;;;;;1.60;1.50;;;;;;;4.78;91.35;98665.59;4105231;28;20341;-47
2023/10/17 04:58:53;;;;;;;1.40;1.40;;;;;;;4.84;91.17;98680.19;4104972;28;20269;-46
2023/10/17 05:03:13;;;;;;;1.75;1.65;;;;;;;4.71;90.67;98683.75;4103989;28;20243;-46
2023/10/17 05:05:39;;;;;;;1.45;1.30;;;;;;;4.87;91.61;98688.72;4120044;28;20927;-47
2023/10/17 06:18:26;;;;;;;1.13;1.02;;;;;;;4.58;96.42;98653.09;4103691;28;20214;-46
2023/10/17 06:35:23;;;;;;;2.13;1.92;;;;;;;4.91;93.68;98660.16;4089262;28;20659;-47
2023/10/17 06:37:30;;;;;;;1.20;1.20;;;;;;;4.98;93.48;98655.56;4075655;28;20253;-46
2023/10/17 06:39:45;;;;;;;1.20;1.15;;;;;;;5.02;93.13;98673.09;4118148;28;20695;-46
2023/10/17 06:41:47;;;;;;;10.02;2.92;;;;;;;5.00;93.25;98667.03;4118067;28;20213;-47
2023/10/17 06:43:49;;;;;;;1.45;1.35;;;;;;;5.09;93.11;98666.59;4104109;28;20322;-47
2023/10/17 06:46:04;;;;;;;1.80;1.70;;;;;;;5.15;92.76;98673.06;4138900;28;20252;-47
2023/10/17 06:48:07;;;;;;;1.80;1.70;;;;;;;5.20;93.35;98671.38;4106995;28;20249;-46
2023/10/17 06:54:24;;;;;;;1.67;1.58;;;;;;;5.19;93.34;98663.44;4104621;28;20468;-47
2023/10/17 06:56:27;;;;;;;1.40;1.30;;;;;;;5.30;92.79;98670.94;4102364;28;20310;-47
2023/10/17 06:58:29;;;;;;;1.95;1.77;;;;;;;5.14;93.09;98665.94;4117420;28;20977;-46
2023/10/17 07:02:56;;;;;;;2.97;1.75;;;;;;;5.04;94.55;98657.44;4107566;28;20599;-46
2023/10/17 07:05:01;;;;;;;1.40;1.30;;;;;;;5.03;95.08;98653.88;4116404;28;20257;-46
2023/10/17 07:07:03;;;;;;;1.30;1.30;;;;;;;5.03;95.28;98653.06;4102705;28;20216;-46
2023/10/17 07:09:06;;;;;;;4.63;1.58;;;;;;;5.11;94.67;98660.97;4134864;28;20267;-46
2023/10/17 07:11:26;;;;;;;3.28;1.75;;;;;;;5.12;95.40;98659.91;4102889;28;20210;-46
2023/10/17 07:13:49;;;;;;;1.27;1.27;;;;;;;5.13;94.94;98658.88;4106559;28;20317;-46
2023/10/17 07:15:54;;;;;;;1.02;1.02;;;;;;;5.21;95.16;98661.34;4124107;28;20198;-47
2023/10/17 07:21:23;;;;;;;1.38;1.27;;;;;;;5.10;95.41;98656.59;4105909;28;20246;-46
2023/10/17 07:22:53;;;;;;;2.90;1.55;;;;;;;5.18;94.72;98662.63;4106702;28;20226;-46
2023/10/17 07:25:01;;;;;;;1.88;1.77;;;;;;;5.31;94.49;98667.16;4136686;28;20228;-47
2023/10/17 07:27:11;;;;;;;1.58;1.48;;;;;;;5.26;95.44;98669.69;4116518;28;20237;-46
2023/10/17 07:29:14;;;;;;;1.20;1.20;;;;;;;5.34;95.28;98664.88;4119891;28;20260;-46
2023/10/17 07:31:16;;;;;;;1.52;1.42;;;;;;;5.37;95.62;98660.91;4119235;28;20260;-46
2023/10/17 07:33:23;;;;;;;1.15;1.15;;;;;;;5.39;94.79;98669.63;4103393;28;20373;-46
2023/10/17 07:35:25;;;;;;;1.58;1.50;;;;;;;5.42;94.65;98666.53;4104308;28;20202;-46
2023/10/17 07:37:33;;;;;;;1.42;1.30;;;;;;;5.57;94.07;98664.38;4120592;28;20211;-47
2023/10/17 07:39:37;;;;;;;1.60;1.50;;;;;;;5.64;93.60;98666.00;4119408;28;20210;-47
2023/10/17 07:41:39;;;;;;;1.27;1.17;;;;;;;5.63;92.71;98669.75;4137518;28;20606;-47
2023/10/17 07:43:44;;;;;;;1.33;1.27;;;;;;;5.74;92.14;98666.38;4111541;28;20234;-46
2023/10/17 07:45:55;;;;;;;1.35;1.35;;;;;;;5.72;92.00;98670.34;4097740;28;20746;-46
2023/10/17 07:48:01;;;;;;;4.85;2.83;;;;;;;5.86;91.57;98672.00;4136706;28;20201;-46
2023/10/17 07:50:12;;;;;;;1.52;1.42;;;;;;;5.99;90.37;98675.47;4134592;28;20205;-46
2023/10/17 07:52:17;;;;;;;1.85;1.75;;;;;;;5.97;90.19;98672.13;4105714;28;20215;-46
2023/10/17 07:54:19;;;;;;;1.52;1.45;;;;;;;6.05;88.98;98666.47;4134365;28;20228;-46
2023/10/17 07:56:21;;;;;;;1.20;1.20;;;;;;;6.10;89.31;98663.09;4103621;28;20219;-46
2023/10/17 08:00:48;;;;;;;3.00;2.00;;;;;;;6.06;89.11;98667.28;4105422;28;20219;-46
2023/10/17 08:02:54;;;;;;;1.58;1.30;;;;;;;6.14;88.88;98670.59;4119006;28;20902;-46
2023/10/17 08:05:00;;;;;;;1.60;1.50;;;;;;;6.13;88.71;98662.66;4117969;28;20222;-46
2023/10/17 08:07:03;;;;;;;1.20;1.10;;;;;;;6.09;88.49;98667.69;4119820;28;20289;-46
2023/10/17 08:09:16;;;;;;;1.92;1.83;;;;;;;6.26;88.52;98663.41;4102314;28;20669;-46
2023/10/17 08:11:36;;;;;;;1.60;1.50;;;;;;;6.20;87.60;98674.31;4103913;28;20229;-47
2023/10/17 08:13:38;;;;;;;1.65;1.58;;;;;;;6.17;88.15;98680.19;4134600;28;20229;-46
2023/10/17 08:15:52;;;;;;;1.77;1.67;;;;;;;6.20;87.98;98683.28;4102931;28;20219;-46
2023/10/17 08:17:54;;;;;;;6.18;1.90;;;;;;;6.26;87.56;98682.44;4118087;28;20778;-47
2023/10/17 08:20:38;;;;;;;1.77;1.67;;;;;;;6.22;86.53;98672.22;4102913;28;20219;-46
2023/10/17 08:22:26;;;;;;;1.42;1.38;;;;;;;6.27;87.40;98675.09;4103478;28;20278;-47
2023/10/17 08:24:44;;;;;;;1.48;1.38;;;;;;;6.36;87.04;98684.66;4104520;28;20231;-46
2023/10/17 08:27:12;;;;;;;2.72;1.45;;;;;;;6.37;86.06;98689.84;4103396;28;20207;-47
2023/10/17 08:29:08;;;;;;;2.47;1.70;;;;;;;6.33;85.79;98682.38;4130262;28;20214;-46
2023/10/17 08:31:35;;;;;;;1.75;1.52;;;;;;;6.24;86.73;98679.06;4104518;28;20218;-46
2023/10/17 08:33:40;;;;;;;2.13;1.98;;;;;;;6.41;85.71;98682.94;4104902;28;20694;-46
2023/10/17 08:35:51;;;;;;;4.45;1.98;;;;;;;6.42;86.37;98672.91;4120810;28;20210;-47
2023/10/17 08:37:52;;;;;;;1.83;1.75;;;;;;;6.55;85.26;98672.81;4110479;28;20241;-46
2023/10/17 08:39:56;;;;;;;1.45;1.35;;;;;;;6.46;85.77;98676.84;4103029;28;20206;-46
2023/10/17 08:42:12;;;;;;;1.48;1.40;;;;;;;6.47;85.67;98675.78;4103644;28;20767;-47
2023/10/17 08:44:14;;;;;;;1.25;1.25;;;;;;;6.47;85.47;98670.34;4101893;28;20581;-47
2023/10/17 08:46:17;;;;;;;1.35;1.10;;;;;;;6.56;85.42;98669.03;4118303;28;20748;-46
2023/10/17 08:48:19;;;;;;;1.88;1.77;;;;;;;6.56;85.91;98663.63;4102531;28;20238;-46
2023/10/17 08:50:23;;;;;;;1.63;1.38;;;;;;;6.63;85.87;98664.38;4118019;28;20206;-46
2023/10/17 08:52:28;;;;;;;2.28;1.05;;;;;;;6.68;85.92;98668.09;4118804;28;20210;-46
2023/10/17 08:54:30;;;;;;;2.40;1.98;;;;;;;6.62;85.92;98666.25;4117317;28;20202;-46
2023/10/17 08:56:36;;;;;;;2.05;1.85;;;;;;;6.66;85.72;98674.81;4119637;28;20739;-46
2023/10/17 08:58:39;;;;;;;1.58;1.48;;;;;;;6.78;85.32;98668.44;4100395;28;20431;-46
2023/10/17 09:03:01;;;;;;;1.80;1.70;;;;;;;6.79;85.12;98667.38;4102516;28;20230;-46
2023/10/17 09:05:18;;;;;;;11.45;2.13;;;;;;;6.84;85.76;98677.59;4136065;28;20272;-46
2023/10/17 09:07:32;;;;;;;6.07;2.40;;;;;;;7.08;85.64;98671.31;4135323;28;20217;-46
2023/10/17 09:09:34;;;;;;;1.50;1.45;;;;;;;7.09;84.75;98675.69;4134119;28;21685;-46
2023/10/17 09:11:42;;;;;;;1.42;1.33;;;;;;;7.07;83.88;98683.22;4118866;28;20229;-46
2023/10/17 09:15:57;;;;;;;2.17;1.98;;;;;;;7.17;83.27;98667.22;4104235;28;20211;-46
2023/10/17 09:18:08;;;;;;;1.27;1.17;;;;;;;7.15;82.57;98670.16;4118256;28;20213;-46
2023/10/17 09:20:16;;;;;;;1.30;1.30;;;;;;;7.24;83.22;98673.44;4135223;28;20210;-46
2023/10/17 09:22:21;;;;;;;1.80;1.70;;;;;;;7.32;83.38;98665.81;4104210;28;20238;-46
2023/10/17 09:24:35;;;;;;;1.85;1.40;;;;;;;7.46;82.15;98674.66;4136324;28;20641;-46
2023/10/17 09:26:46;;;;;;;1.20;1.20;;;;;;;7.43;82.32;98681.38;4117794;28;20202;-47
2023/10/17 09:28:48;;;;;;;2.38;1.98;;;;;;;7.65;82.09;98677.16;4101326;28;20226;-46
2023/10/17 09:31:06;;;;;;;2.83;1.85;;;;;;;7.56;81.68;98674.97;4119380;28;20618;-46
2023/10/17 09:33:27;;;;;;;1.33;1.30;;;;;;;7.66;81.69;98683.44;4118062;28;20225;-45
2023/10/17 09:35:29;;;;;;;1.40;1.30;;;;;;;7.89;80.90;98672.69;4119285;28;20288;-46
2023/10/17 09:37:32;;;;;;;1.75;1.63;;;;;;;7.80;80.29;98679.50;4116911;28;20330;-46
2023/10/17 09:39:39;;;;;;;1.98;1.80;;;;;;;7.96;79.40;98679.69;4102430;28;20346;-46
2023/10/17 09:41:41;;;;;;;1.58;1.48;;;;;;;7.91;79.51;98676.84;4118682;28;20260;-46
2023/10/17 09:43:44;;;;;;;1.70;1.58;;;;;;;7.97;79.71;98684.09;4117238;28;20246;-46
2023/10/17 09:45:48;;;;;;;1.95;1.83;;;;;;;8.13;80.36;98686.19;4131831;28;20233;-46
2023/10/17 09:47:57;;;;;;;1.95;1.42;;;;;;;8.05;79.20;98682.94;4101975;28;20211;-46
2023/10/17 09:50:01;;;;;;;1.83;1.73;;;;;;;8.21;78.65;98676.91;4104177;28;20206;-46
2023/10/17 09:52:09;;;;;;;1.20;1.20;;;;;;;8.16;78.28;98674.00;4085602;28;20219;-46
2023/10/17 09:54:12;;;;;;;1.85;1.75;;;;;;;8.20;78.90;98678.78;4101725;28;20233;-46
2023/10/17 09:56:17;;;;;;;2.70;1.15;;;;;;;8.21;78.49;98685.06;4117738;28;20305;-48
2023/10/17 09:58:27;;;;;;;2.22;2.13;;;;;;;8.13;77.95;98678.00;4118224;28;20206;-46
2023/10/17 10:00:42;;;;;;;2.00;1.90;;;;;;;8.09;79.12;98675.97;4102532;28;20242;-46
2023/10/17 10:02:46;;;;;;;1.10;1.10;;;;;;;8.11;79.68;98677.41;4088548;28;20257;-47
2023/10/17 10:05:18;;;;;;;1.30;1.23;;;;;;;8.36;79.09;98680.03;4086255;28;20223;-46
2023/10/17 10:07:22;;;;;;;8.77;2.42;;;;;;;8.14;78.29;98681.53;4134459;28;20290;-46
2023/10/17 10:09:26;;;;;;;2.63;2.42;;;;;;;8.39;78.95;98674.09;4121329;28;20206;-46
2023/10/17 10:11:48;;;;;;;1.80;1.70;;;;;;;8.44;77.92;98682.41;4134410;28;20263;-46
2023/10/17 10:14:04;;;;;;;1.85;1.70;;;;;;;8.52;78.07;98673.91;4119801;28;20631;-46
2023/10/17 10:16:07;;;;;;;20.35;6.45;;;;;;;8.49;77.11;98675.19;4134248;28;20695;-47
2023/10/17 10:18:09;;;;;;;52.38;3.88;;;;;;;8.67;77.89;98669.69;4098879;28;21036;-45
2023/10/17 10:20:13;;;;;;;3.20;3.00;;;;;;;8.46;77.04;98667.50;4133696;28;20252;-47
2023/10/17 10:22:16;;;;;;;10.65;3.17;;;;;;;8.65;78.51;98668.25;4102167;28;20215;-47
2023/10/17 10:24:18;;;;;;;3.05;2.80;;;;;;;8.65;77.09;98673.69;4104736;28;20592;-46
2023/10/17 10:26:21;;;;;;;2.10;1.95;;;;;;;8.52;76.68;98669.28;4118459;28;20211;-46
2023/10/17 10:28:25;;;;;;;1.38;1.38;;;;;;;8.50;77.74;98667.84;4117968;28;20209;-46
2023/10/17 10:30:40;;;;;;;10.35;1.65;;;;;;;8.36;78.06;98664.47;4118051;28;20210;-46
2023/10/17 10:32:43;;;;;;;1.15;1.15;;;;;;;8.55;78.09;98663.34;4099930;28;20233;-46
2023/10/17 10:34:45;;;;;;;1.58;1.48;;;;;;;8.50;78.09;98659.69;4100958;28;20223;-46
2023/10/17 10:36:47;;;;;;;1.65;1.55;;;;;;;8.45;77.83;98656.81;4132722;28;20212;-45
2023/10/17 10:38:50;;;;;;;1.88;1.77;;;;;;;8.43;79.02;98654.31;4118275;28;20226;-46
2023/10/17 10:40:52;;;;;;;2.47;2.30;;;;;;;8.35;79.20;98653.84;4119039;28;20257;-46
2023/10/17 10:42:59;;;;;;;1.55;1.45;;;;;;;8.38;78.83;98645.19;4134524;28;20230;-46
2023/10/17 10:45:01;;;;;;;2.25;2.05;;;;;;;8.43;78.81;98637.13;4115600;28;20305;-45
2023/10/17 10:47:06;;;;;;;1.52;1.45;;;;;;;8.51;78.50;98639.53;4133700;28;20599;-45
2023/10/17 10:49:07;;;;;;;1.75;1.65;;;;;;;8.51;78.88;98640.38;4100035;28;20211;-47
2023/10/17 10:51:14;;;;;;;2.05;1.95;;;;;;;8.35;78.90;98629.31;4117441;28;20567;-45
2023/10/17 10:53:23;;;;;;;2.17;1.95;;;;;;;8.55;79.38;98629.81;4117104;28;20284;-46
2023/10/17 10:55:26;;;;;;;3.00;1.50;;;;;;;8.62;78.59;98625.91;4116613;28;21773;-46
2023/10/17 10:57:33;;;;;;;1.35;1.25;;;;;;;8.88;78.14;98624.63;4116481;28;20735;-46
2023/10/17 10:59:35;;;;;;;2.78;2.13;;;;;;;8.94;77.53;98634.63;4134192;28;20655;-46
2023/10/17 11:01:36;;;;;;;2.28;2.17;;;;;;;9.01;77.87;98618.94;4135504;28;20206;-46
2023/10/17 11:03:44;;;;;;;1.85;1.75;;;;;;;9.27;78.19;98618.44;4109335;28;20238;-46
2023/10/17 11:05:55;;;;;;;1.73;1.55;;;;;;;9.37;76.24;98614.06;4135898;28;20221;-46
2023/10/17 11:08:00;;;;;;;18.52;1.77;;;;;;;9.59;75.22;98614.22;4121649;28;20206;-46
2023/10/17 11:10:06;;;;;;;1.40;1.40;;;;;;;10.27;75.01;98610.44;4084874;28;20294;-47
2023/10/17 11:12:08;;;;;;;4.50;1.80;;;;;;;10.76;73.23;98617.84;4090384;28;20208;-47
2023/10/17 11:14:15;;;;;;;11.73;2.25;;;;;;;10.64;71.39;98602.59;4100971;28;20231;-47
2023/10/17 11:16:21;;;;;;;1.50;1.40;;;;;;;10.64;71.49;98605.34;4101927;28;21183;-46
2023/10/17 11:18:24;;;;;;;1.70;1.60;;;;;;;10.76;70.27;98597.88;4100193;28;20236;-47
2023/10/17 11:20:27;;;;;;;1.40;1.25;;;;;;;10.83;69.04;98599.38;4116686;28;20628;-48
2023/10/17 11:22:29;;;;;;;2.67;1.73;;;;;;;11.09;68.50;98594.03;4097783;28;20204;-46
2023/10/17 11:24:30;;;;;;;2.03;1.90;;;;;;;11.13;66.64;98597.94;4117927;28;20229;-48
2023/10/17 11:26:34;;;;;;;1.60;1.50;;;;;;;10.90;65.99;98587.16;4099183;28;20297;-47
2023/10/17 11:28:42;;;;;;;1.40;1.30;;;;;;;10.36;65.77;98598.00;4107349;28;20207;-47
2023/10/17 11:30:45;;;;;;;1.17;1.17;;;;;;;10.04;66.72;98593.31;4105309;28;20210;-47
2023/10/17 11:32:49;;;;;;;1.40;1.30;;;;;;;9.90;67.50;98591.91;4106355;28;20226;-47
2023/10/17 11:35:04;;;;;;;1.25;1.25;;;;;;;9.93;67.27;98585.94;4089815;28;20238;-47
2023/10/17 11:37:11;;;;;;;3.50;1.80;;;;;;;9.87;67.37;98581.47;4139921;28;20217;-46
2023/10/17 11:39:16;;;;;;;1.70;1.60;;;;;;;9.89;67.84;98582.06;4087765;28;20294;-48
2023/10/17 11:41:19;;;;;;;1.20;1.20;;;;;;;10.16;68.40;98585.88;4104050;28;20207;-48
2023/10/17 11:43:28;;;;;;;2.15;2.03;;;;;;;10.38;68.69;98584.94;4108224;28;20231;-47
2023/10/17 11:45:36;;;;;;;2.22;2.03;;;;;;;10.49;67.53;98585.94;4108778;28;20727;-47
2023/10/17 11:47:38;;;;;;;2.13;1.98;;;;;;;10.52;66.82;98590.91;4091141;28;20203;-47
2023/10/17 11:49:41;;;;;;;1.35;1.25;;;;;;;10.38;66.86;98595.88;4141150;28;20205;-47
2023/10/17 11:51:48;;;;;;;1.70;1.60;;;;;;;10.31;66.17;98597.09;4138235;28;20236;-47
2023/10/17 11:54:08;;;;;;;2.03;1.92;;;;;;;10.77;66.65;98592.97;4089773;28;20739;-47
2023/10/17 11:56:31;;;;;;;2.05;1.83;;;;;;;10.93;66.72;98603.09;4122041;28;20207;-46
2023/10/17 11:58:35;;;;;;;19.88;3.25;;;;;;;10.74;65.71;98589.91;4138394;28;20210;-48
2023/10/17 12:00:37;;;;;;;4.53;2.25;;;;;;;10.72;65.31;98596.69;4122315;28;20210;-45
2023/10/17 12:02:42;;;;;;;1.58;1.48;;;;;;;10.88;65.38;98593.16;4123843;28;20234;-46
2023/10/17 12:04:44;;;;;;;15.23;2.10;;;;;;;10.85;65.70;98598.03;4107428;28;20214;-45
2023/10/17 12:06:47;;;;;;;1.85;1.20;;;;;;;10.92;65.69;98590.47;4107322;28;20210;-47
2023/10/17 12:08:49;;;;;;;1.80;1.70;;;;;;;11.21;65.24;98592.03;4105952;28;20214;-46
2023/10/17 12:10:53;;;;;;;6.15;1.88;;;;;;;10.65;65.13;98582.34;4123269;28;20210;-47
2023/10/17 12:13:04;;;;;;;1.63;1.38;;;;;;;10.72;65.87;98580.28;4100449;28;20241;-46